Time;durP1;ratioP1;P1;durP2;ratioP2;P2;SDS_P1;SDS_P2;PMS_P1;PMS_P2;Temp;Humidity;BMP_temperature;BMP_pressure;BME280_temperature;BME280_humidity;BME280_pressure;Samples;Min_cycle;Max_cycle;Signal;HPM_P1;HPM_P2
2022/03/28 00:00:59;;;;;;;40.47;20.58;;;;;;;8.69;56.72;101959.16;5073461;28;20060;-68
2022/03/28 00:03:27;;;;;;;40.10;20.83;;;;;;;8.73;56.45;101949.44;5073543;28;20407;-67
2022/03/28 00:05:55;;;;;;;37.97;20.88;;;;;;;8.66;57.07;101946.78;5074084;28;20048;-67
2022/03/28 00:08:23;;;;;;;34.22;19.95;;;;;;;8.58;57.27;101944.41;5066699;28;20056;-67
2022/03/28 00:10:51;;;;;;;38.50;19.23;;;;;;;8.56;57.51;101943.81;5074268;28;20048;-67
2022/03/28 00:13:19;;;;;;;37.45;20.42;;;;;;;8.52;57.48;101946.19;5073819;28;20040;-68
2022/03/28 00:15:47;;;;;;;44.20;20.75;;;;;;;8.46;57.56;101938.91;5073864;28;20049;-67
2022/03/28 00:18:15;;;;;;;37.15;19.55;;;;;;;8.43;57.88;101926.56;5073091;28;20040;-68
2022/03/28 00:20:46;;;;;;;42.05;21.27;;;;;;;8.41;57.95;101936.84;5074263;28;20368;-68
2022/03/28 00:23:15;;;;;;;37.60;20.45;;;;;;;8.36;58.04;101933.97;5073297;28;20064;-68
2022/03/28 00:25:45;;;;;;;37.63;19.15;;;;;;;8.36;58.09;101933.16;5074118;28;20040;-68
2022/03/28 00:28:14;;;;;;;35.90;20.25;;;;;;;8.36;57.33;101933.16;5070587;28;20052;-68
2022/03/28 00:30:42;;;;;;;37.28;20.83;;;;;;;8.31;58.17;101931.94;5049590;28;20400;-68
2022/03/28 00:33:10;;;;;;;41.25;21.02;;;;;;;8.31;57.93;101923.78;5072335;28;20041;-68
2022/03/28 00:36:03;;;;;;;36.85;19.40;;;;;;;8.24;58.21;101917.59;5073319;28;20055;-67
2022/03/28 00:38:31;;;;;;;35.42;20.67;;;;;;;8.21;58.83;101915.31;5073329;28;20479;-67
2022/03/28 00:40:59;;;;;;;39.13;20.60;;;;;;;8.22;58.92;101921.59;5074492;28;20486;-68
2022/03/28 00:43:28;;;;;;;37.17;20.75;;;;;;;8.22;59.01;101921.59;5073224;28;20048;-68
2022/03/28 00:45:56;;;;;;;33.05;19.92;;;;;;;8.19;59.26;101909.25;5073487;28;20036;-67
2022/03/28 00:48:26;;;;;;;36.03;18.75;;;;;;;8.27;58.97;101916.28;5073331;28;20044;-67
2022/03/28 00:50:56;;;;;;;36.45;19.50;;;;;;;8.40;58.16;101912.56;5066552;28;20049;-67
2022/03/28 00:53:25;;;;;;;38.58;20.98;;;;;;;8.41;57.45;101915.03;5073095;28;20052;-67
2022/03/28 00:55:54;;;;;;;39.05;21.15;;;;;;;8.44;57.12;101911.00;5073360;28;20048;-67
2022/03/28 00:58:22;;;;;;;39.25;20.42;;;;;;;8.43;56.52;101906.63;5072140;28;20403;-68
2022/03/28 01:00:50;;;;;;;37.17;21.20;;;;;;;8.41;56.71;101909.56;5072886;28;20041;-68
2022/03/28 01:03:18;;;;;;;43.20;20.58;;;;;;;8.47;56.88;101902.38;5072543;28;20074;-67
2022/03/28 01:05:46;;;;;;;42.47;21.27;;;;;;;8.44;57.53;101905.53;5072940;28;20395;-68
2022/03/28 01:08:15;;;;;;;40.60;20.60;;;;;;;8.54;57.34;101903.13;5073162;28;20059;-67
2022/03/28 01:10:48;;;;;;;36.42;21.15;;;;;;;8.60;57.35;101899.47;5072780;28;20041;-68
2022/03/28 01:13:16;;;;;;;41.20;22.73;;;;;;;8.65;56.87;101898.75;5072896;28;20040;-68
2022/03/28 01:15:44;;;;;;;42.50;21.48;;;;;;;8.64;57.15;101908.00;5071082;28;20411;-68
2022/03/28 01:18:14;;;;;;;36.20;20.92;;;;;;;8.48;57.64;101909.47;5072762;28;20036;-67
2022/03/28 01:20:42;;;;;;;37.55;20.88;;;;;;;8.37;57.59;101902.94;5072648;28;20045;-67
2022/03/28 01:23:11;;;;;;;41.15;22.52;;;;;;;8.21;58.44;101904.41;5072274;28;20056;-67
2022/03/28 01:25:45;;;;;;;38.47;21.48;;;;;;;7.97;59.08;101904.28;5072375;28;20075;-67
2022/03/28 01:28:13;;;;;;;41.53;21.85;;;;;;;7.79;59.80;101903.25;5067801;28;20052;-67
2022/03/28 01:30:41;;;;;;;40.70;21.25;;;;;;;7.66;60.02;101896.09;5072017;28;20059;-68
2022/03/28 01:33:09;;;;;;;39.22;20.92;;;;;;;7.77;60.31;101896.41;5066941;28;20048;-68
2022/03/28 01:35:39;;;;;;;42.50;21.63;;;;;;;7.66;60.97;101887.06;5072343;28;20059;-68
2022/03/28 01:38:08;;;;;;;39.40;21.95;;;;;;;7.56;61.20;101892.22;5072275;28;20056;-67
2022/03/28 01:40:39;;;;;;;38.88;21.42;;;;;;;7.47;61.73;101883.50;5072030;28;20491;-67
2022/03/28 01:43:08;;;;;;;42.33;20.88;;;;;;;7.40;61.96;101883.59;5071578;28;20060;-67
2022/03/28 01:45:37;;;;;;;39.55;21.77;;;;;;;7.36;62.52;101883.22;5072086;28;20044;-67
2022/03/28 01:48:06;;;;;;;38.60;22.02;;;;;;;7.37;62.68;101878.59;5072125;28;20048;-68
2022/03/28 01:50:35;;;;;;;41.38;21.85;;;;;;;7.36;62.57;101883.22;5071915;28;20052;-67
2022/03/28 01:53:03;;;;;;;41.00;20.55;;;;;;;7.39;62.81;101890.13;5071902;28;20395;-67
2022/03/28 01:55:32;;;;;;;36.38;19.77;;;;;;;7.39;62.15;101880.03;5071612;28;20049;-68
2022/03/28 01:58:00;;;;;;;42.13;20.83;;;;;;;7.41;62.67;101879.81;5071388;28;20041;-68
2022/03/28 02:00:34;;;;;;;43.97;21.58;;;;;;;7.38;63.05;101885.72;5071671;28;20051;-67
2022/03/28 02:03:02;;;;;;;42.72;22.33;;;;;;;7.33;63.23;101872.78;5070844;28;20410;-67
2022/03/28 02:05:30;;;;;;;41.42;22.20;;;;;;;7.30;63.91;101881.41;5071830;28;20385;-67
2022/03/28 02:08:02;;;;;;;46.33;22.05;;;;;;;7.35;63.60;101875.28;5071555;28;20047;-67
2022/03/28 02:10:30;;;;;;;36.13;20.55;;;;;;;7.56;63.14;101871.25;5071532;28;20051;-67
2022/03/28 02:12:58;;;;;;;38.10;21.58;;;;;;;7.61;62.75;101867.84;5071727;28;20044;-67
2022/03/28 02:15:26;;;;;;;34.08;19.70;;;;;;;7.50;63.62;101864.00;5071889;28;20076;-67
2022/03/28 02:17:54;;;;;;;33.22;19.05;;;;;;;7.45;63.86;101864.69;5069315;28;20048;-68
2022/03/28 02:20:22;;;;;;;38.55;19.33;;;;;;;7.47;63.23;101867.16;5071372;28;20044;-68
2022/03/28 02:22:50;;;;;;;33.25;19.73;;;;;;;7.42;63.58;101865.13;5071685;28;20071;-68
2022/03/28 02:25:18;;;;;;;37.40;18.95;;;;;;;7.31;63.78;101864.00;5071581;28;20045;-67
2022/03/28 02:27:46;;;;;;;31.27;18.90;;;;;;;7.25;64.11;101860.28;5071328;28;20032;-67
2022/03/28 02:30:14;;;;;;;33.55;18.08;;;;;;;7.20;63.60;101865.59;5071325;28;20037;-67
2022/03/28 02:32:42;;;;;;;30.52;17.15;;;;;;;7.22;63.31;101859.91;5071841;28;20049;-67
2022/03/28 02:35:11;;;;;;;31.38;16.83;;;;;;;7.10;63.32;101857.91;5071243;28;20044;-68
2022/03/28 02:37:39;;;;;;;31.88;17.42;;;;;;;7.05;62.59;101855.06;5071610;28;20059;-68
2022/03/28 02:40:08;;;;;;;33.85;16.60;;;;;;;7.04;62.40;101852.56;5071050;28;20052;-67
2022/03/28 02:42:58;;;;;;;28.30;16.02;;;;;;;7.11;61.38;101845.16;5071249;28;20047;-67
2022/03/28 02:45:31;;;;;;;27.75;14.95;;;;;;;7.26;60.18;101845.63;5071383;28;20036;-67
2022/03/28 02:47:59;;;;;;;30.25;16.27;;;;;;;7.13;61.29;101845.75;5071989;28;20041;-67
2022/03/28 02:50:49;;;;;;;27.50;15.25;;;;;;;6.95;61.44;101841.94;5070394;28;20071;-67
2022/03/28 02:53:19;;;;;;;25.98;14.70;;;;;;;6.81;61.84;101837.69;5071770;28;20055;-67
2022/03/28 02:55:47;;;;;;;24.67;14.82;;;;;;;6.70;61.13;101837.38;5071358;28;20047;-67
2022/03/28 02:58:15;;;;;;;27.08;14.88;;;;;;;6.64;61.04;101840.97;5070549;28;20585;-67
2022/03/28 03:00:43;;;;;;;27.63;14.57;;;;;;;6.60;61.42;101837.03;5070294;28;20044;-67
2022/03/28 03:03:11;;;;;;;30.35;15.40;;;;;;;6.56;61.49;101835.81;5068062;28;20041;-67
2022/03/28 03:05:43;;;;;;;25.92;14.82;;;;;;;6.51;61.67;101839.19;5070738;28;20056;-67
2022/03/28 03:08:11;;;;;;;30.20;16.08;;;;;;;6.50;61.58;101834.00;5070171;28;20041;-67
2022/03/28 03:10:39;;;;;;;31.13;15.38;;;;;;;6.52;62.53;101840.03;5070837;28;20055;-67
2022/03/28 03:13:08;;;;;;;26.95;14.25;;;;;;;6.50;61.81;101831.28;5071199;28;20060;-67
2022/03/28 03:15:38;;;;;;;27.83;14.10;;;;;;;6.45;62.09;101838.19;5070517;28;20065;-67
2022/03/28 03:18:06;;;;;;;28.65;15.32;;;;;;;6.51;61.84;101824.78;5071894;28;20498;-67
2022/03/28 03:20:34;;;;;;;27.15;14.70;;;;;;;6.54;61.63;101825.16;5070725;28;20586;-67
2022/03/28 03:23:03;;;;;;;30.17;15.48;;;;;;;6.50;62.32;101828.56;5072748;28;20399;-67
2022/03/28 03:25:30;;;;;;;26.58;14.88;;;;;;;6.49;62.32;101824.16;5074238;28;20436;-67
2022/03/28 03:28:02;;;;;;;27.38;15.30;;;;;;;6.44;62.61;101828.38;5072963;28;20045;-67
2022/03/28 03:30:30;;;;;;;28.27;16.05;;;;;;;6.48;62.46;101828.75;5074204;28;20052;-67
2022/03/28 03:32:58;;;;;;;31.80;16.65;;;;;;;6.49;62.44;101824.97;5074418;28;20399;-67
2022/03/28 03:35:28;;;;;;;27.45;15.77;;;;;;;6.55;62.62;101826.00;5073215;28;20056;-67
2022/03/28 03:37:56;;;;;;;34.45;18.27;;;;;;;6.54;62.63;101824.31;5074372;28;20355;-67
2022/03/28 03:40:24;;;;;;;34.50;16.25;;;;;;;6.54;61.82;101822.44;5074467;28;20040;-67
2022/03/28 03:42:52;;;;;;;29.27;15.93;;;;;;;6.61;61.43;101819.66;5072905;28;20036;-67
2022/03/28 03:45:20;;;;;;;25.10;14.55;;;;;;;6.67;61.30;101815.22;5073198;28;20037;-67
2022/03/28 03:47:48;;;;;;;30.27;16.25;;;;;;;6.75;60.82;101812.19;5072075;28;20049;-67
2022/03/28 03:50:16;;;;;;;27.77;15.30;;;;;;;6.61;61.03;101814.22;5074898;28;20051;-67
2022/03/28 03:52:44;;;;;;;30.25;15.48;;;;;;;6.79;60.60;101818.88;5074196;28;20044;-67
2022/03/28 03:55:12;;;;;;;28.00;15.48;;;;;;;6.88;59.77;101811.25;5074738;28;20049;-67
2022/03/28 03:57:40;;;;;;;28.92;15.48;;;;;;;6.72;60.10;101820.81;5073777;28;20064;-67
2022/03/28 04:00:08;;;;;;;29.05;14.48;;;;;;;6.62;60.11;101818.63;5073108;28;20057;-67
2022/03/28 04:02:39;;;;;;;30.88;14.95;;;;;;;6.61;59.31;101819.66;5072551;28;20033;-67
2022/03/28 04:05:08;;;;;;;30.95;15.10;;;;;;;6.56;59.63;101822.22;5072835;28;20053;-67
2022/03/28 04:07:36;;;;;;;27.85;14.60;;;;;;;6.59;58.89;101827.19;5074190;28;20071;-67
2022/03/28 04:10:04;;;;;;;24.73;14.40;;;;;;;6.67;58.58;101821.50;5072370;28;20048;-67
2022/03/28 04:12:32;;;;;;;25.58;14.52;;;;;;;6.57;58.99;101832.03;5073614;28;20051;-67
2022/03/28 04:15:01;;;;;;;26.95;14.20;;;;;;;6.39;60.24;101830.94;5073466;28;20403;-68
2022/03/28 04:17:29;;;;;;;28.10;14.93;;;;;;;6.25;59.66;101826.66;5073810;28;20037;-68
2022/03/28 04:19:57;;;;;;;28.85;14.05;;;;;;;6.25;59.97;101824.75;5073708;28;20487;-68
2022/03/28 04:22:25;;;;;;;25.58;14.73;;;;;;;6.12;60.56;101822.13;5072719;28;20044;-67
2022/03/28 04:24:53;;;;;;;28.48;14.88;;;;;;;6.04;60.52;101825.94;5073354;28;20045;-66
2022/03/28 04:27:21;;;;;;;24.88;14.20;;;;;;;6.10;60.02;101822.34;5073223;28;20032;-67
2022/03/28 04:29:49;;;;;;;27.75;15.68;;;;;;;6.13;60.14;101826.50;5073221;28;20041;-67
2022/03/28 04:32:16;;;;;;;27.80;14.20;;;;;;;6.02;60.47;101822.56;5072693;28;20041;-67
2022/03/28 04:34:45;;;;;;;29.23;14.95;;;;;;;5.97;61.10;101828.66;5072598;28;20049;-67
2022/03/28 04:37:13;;;;;;;25.60;14.27;;;;;;;5.98;60.99;101838.50;5072393;28;20040;-68
2022/03/28 04:39:41;;;;;;;26.67;14.52;;;;;;;5.86;61.07;101835.63;5074282;28;20417;-67
2022/03/28 04:42:09;;;;;;;30.85;14.13;;;;;;;5.78;61.70;101825.00;5073366;28;20103;-67
2022/03/28 04:44:38;;;;;;;33.90;14.68;;;;;;;5.73;61.87;101822.91;5082165;28;20051;-67
2022/03/28 04:47:06;;;;;;;30.63;14.65;;;;;;;5.69;62.89;101832.56;5078864;28;20059;-67
2022/03/28 04:49:34;;;;;;;24.60;13.85;;;;;;;5.64;63.05;101833.19;5076249;28;20068;-67
2022/03/28 04:52:02;;;;;;;28.63;14.70;;;;;;;5.68;62.73;101836.34;5071388;28;20059;-67
2022/03/28 04:54:30;;;;;;;30.42;14.40;;;;;;;5.67;62.58;101828.41;5072235;28;20049;-67
2022/03/28 04:56:58;;;;;;;23.83;14.82;;;;;;;5.68;62.35;101832.78;5069321;28;20045;-68
2022/03/28 04:59:28;;;;;;;27.25;14.05;;;;;;;5.68;62.98;101836.34;5072035;28;20044;-68
2022/03/28 05:01:56;;;;;;;28.20;15.60;;;;;;;5.70;62.70;101833.38;5072920;28;20044;-68
2022/03/28 05:04:25;;;;;;;31.25;14.52;;;;;;;5.70;62.58;101836.94;5072503;28;20040;-68
2022/03/28 05:06:53;;;;;;;28.83;15.18;;;;;;;5.75;62.32;101836.28;5073044;28;20533;-67
2022/03/28 05:09:21;;;;;;;30.70;16.02;;;;;;;5.76;61.89;101841.53;5072197;28;20063;-67
2022/03/28 05:11:49;;;;;;;31.23;15.45;;;;;;;5.95;61.17;101840.81;5072257;28;20041;-67
2022/03/28 05:14:18;;;;;;;28.55;15.10;;;;;;;5.93;61.43;101838.31;5075344;28;20057;-67
2022/03/28 05:16:46;;;;;;;29.92;15.25;;;;;;;6.04;60.90;101840.38;5081972;28;20811;-67
2022/03/28 05:19:15;;;;;;;26.40;14.32;;;;;;;6.16;60.40;101842.38;5072192;28;20064;-67
2022/03/28 05:21:43;;;;;;;32.80;15.32;;;;;;;6.26;61.66;101841.91;5071546;28;20045;-78
2022/03/28 05:24:11;;;;;;;26.60;15.02;;;;;;;6.59;60.00;101838.94;5061956;28;20056;-78
2022/03/28 05:26:40;;;;;;;29.35;15.65;;;;;;;7.12;58.44;101839.50;5054599;28;20050;-79
2022/03/28 05:29:08;;;;;;;31.02;15.25;;;;;;;7.39;57.23;101843.81;5039843;28;20045;-78
2022/03/28 05:31:36;;;;;;;28.80;14.90;;;;;;;7.62;56.34;101850.47;5065168;28;20041;-76
2022/03/28 05:34:06;;;;;;;29.27;15.70;;;;;;;7.62;55.96;101842.28;5054685;28;20052;-79
2022/03/28 05:36:34;;;;;;;36.10;16.10;;;;;;;7.76;55.92;101846.50;5052085;28;20044;-77
2022/03/28 05:39:04;;;;;;;25.17;15.15;;;;;;;8.02;55.68;101851.81;5054756;28;20083;-76
2022/03/28 05:41:32;;;;;;;32.40;17.00;;;;;;;8.12;54.66;101852.06;5043667;28;20049;-76
2022/03/28 05:44:00;;;;;;;34.40;15.23;;;;;;;8.09;54.98;101851.72;5036278;28;20052;-67
2022/03/28 05:46:28;;;;;;;37.20;17.27;;;;;;;7.93;55.99;101856.78;5071210;28;20386;-67
2022/03/28 05:48:57;;;;;;;32.65;16.15;;;;;;;7.83;56.51;101851.03;5072724;28;20410;-68
2022/03/28 05:51:25;;;;;;;30.02;16.48;;;;;;;8.06;55.26;101853.84;5071634;28;20040;-68
2022/03/28 05:53:53;;;;;;;31.10;16.38;;;;;;;8.20;54.91;101853.66;5072476;28;20052;-66
2022/03/28 05:56:21;;;;;;;30.75;16.23;;;;;;;8.17;56.03;101859.59;5072399;28;20040;-69
2022/03/28 05:58:49;;;;;;;35.78;17.55;;;;;;;8.30;55.52;101855.81;5072283;28;20491;-68
2022/03/28 06:01:16;;;;;;;35.63;17.67;;;;;;;8.55;54.94;101854.84;5072013;28;20051;-68
2022/03/28 06:03:45;;;;;;;41.83;17.92;;;;;;;8.74;54.27;101859.13;5072044;28;20692;-68
2022/03/28 06:06:13;;;;;;;34.70;17.90;;;;;;;8.87;53.79;101851.78;5071976;28;20053;-68
2022/03/28 06:08:41;;;;;;;41.00;18.15;;;;;;;9.08;53.13;101847.63;5072125;28;20056;-68
2022/03/28 06:11:10;;;;;;;28.73;17.98;;;;;;;8.93;53.41;101850.84;5071986;28;20052;-68
2022/03/28 06:13:37;;;;;;;36.80;18.48;;;;;;;9.12;52.83;101847.97;5071932;28;20051;-68
2022/03/28 06:16:05;;;;;;;34.55;19.65;;;;;;;9.16;52.74;101860.09;5072014;28;20434;-68
2022/03/28 06:18:34;;;;;;;38.75;17.75;;;;;;;9.46;51.90;101850.06;5058119;28;20036;-68
2022/03/28 06:21:02;;;;;;;33.25;17.88;;;;;;;9.65;51.55;101854.31;5072015;28;20053;-67
2022/03/28 06:23:30;;;;;;;40.03;18.15;;;;;;;9.80;51.13;101852.94;5071638;28;20048;-68
2022/03/28 06:25:58;;;;;;;37.42;18.63;;;;;;;9.82;50.85;101856.25;5071433;28;20077;-68
2022/03/28 06:28:26;;;;;;;44.88;19.38;;;;;;;9.93;50.54;101849.91;5071883;28;20044;-68
2022/03/28 06:30:55;;;;;;;42.90;19.73;;;;;;;10.13;51.56;101851.38;5071823;28;20407;-68
2022/03/28 06:33:24;;;;;;;39.17;19.58;;;;;;;10.14;51.29;101855.78;5071613;28;20379;-68
2022/03/28 06:35:52;;;;;;;38.80;18.77;;;;;;;10.46;51.99;101847.03;5071429;28;20407;-68
2022/03/28 06:38:20;;;;;;;37.92;18.63;;;;;;;10.41;50.37;101854.31;5071709;28;20457;-68
2022/03/28 06:40:49;;;;;;;41.75;18.75;;;;;;;10.48;50.41;101853.09;5071837;28;20052;-69
2022/03/28 06:43:17;;;;;;;37.08;18.67;;;;;;;10.53;49.52;101859.75;5071603;28;20060;-68
2022/03/28 06:45:45;;;;;;;40.03;19.70;;;;;;;10.51;49.43;101853.69;5071651;28;20040;-68
2022/03/28 06:48:13;;;;;;;38.10;19.20;;;;;;;10.74;49.42;101856.25;5071670;28;20044;-68
2022/03/28 06:51:03;;;;;;;34.08;19.75;;;;;;;10.68;49.21;101865.47;5070781;28;20039;-68
2022/03/28 06:53:31;;;;;;;40.90;19.88;;;;;;;10.79;49.24;101860.16;5074619;28;20494;-67
2022/03/28 06:56:01;;;;;;;38.33;20.45;;;;;;;11.19;48.26;101861.03;5075359;28;20044;-68
2022/03/28 06:58:29;;;;;;;40.70;20.83;;;;;;;11.38;47.24;101864.28;5076127;28;20454;-68
2022/03/28 07:00:57;;;;;;;35.38;19.48;;;;;;;11.32;48.31;101860.66;5075546;28;20044;-67
2022/03/28 07:03:26;;;;;;;37.60;20.35;;;;;;;11.39;47.64;101863.22;5075491;28;20044;-68
2022/03/28 07:05:54;;;;;;;36.17;19.95;;;;;;;11.45;48.08;101858.63;5075473;28;20060;-68
2022/03/28 07:08:22;;;;;;;44.83;21.60;;;;;;;11.54;47.69;101863.41;5061776;28;20069;-68
2022/03/28 07:10:50;;;;;;;38.45;20.50;;;;;;;11.96;49.19;101863.88;5075795;28;20407;-68
2022/03/28 07:13:18;;;;;;;42.30;21.55;;;;;;;12.36;46.46;101857.19;5074880;28;20051;-67
2022/03/28 07:15:46;;;;;;;48.80;22.80;;;;;;;12.56;45.90;101858.44;5075751;28;20058;-67
2022/03/28 07:18:19;;;;;;;41.50;23.27;;;;;;;12.39;45.69;101855.00;5075327;28;20040;-67
2022/03/28 07:20:47;;;;;;;43.53;23.88;;;;;;;12.74;46.13;101842.66;5075077;28;20045;-68
2022/03/28 07:23:15;;;;;;;40.08;23.92;;;;;;;13.01;45.60;101860.97;5074933;28;20522;-68
2022/03/28 07:25:44;;;;;;;40.75;22.83;;;;;;;12.74;45.34;101856.38;5074781;28;20068;-68
2022/03/28 07:28:13;;;;;;;43.85;24.35;;;;;;;12.68;45.60;101860.19;5075091;28;20047;-68
2022/03/28 07:30:41;;;;;;;42.70;22.98;;;;;;;12.98;45.23;101856.00;5074836;28;20044;-68
2022/03/28 07:33:10;;;;;;;40.85;23.98;;;;;;;12.95;45.35;101859.28;5075032;28;20044;-68
2022/03/28 07:35:38;;;;;;;39.10;22.35;;;;;;;13.36;43.87;101856.78;5075017;28;20436;-68
2022/03/28 07:38:08;;;;;;;39.00;21.52;;;;;;;13.66;43.28;101858.03;5074945;28;20075;-68
2022/03/28 07:40:38;;;;;;;41.30;23.20;;;;;;;13.22;43.82;101861.91;5073940;28;20044;-68
2022/03/28 07:43:07;;;;;;;40.28;22.27;;;;;;;13.90;42.89;101854.81;5074767;28;20052;-68
2022/03/28 07:45:36;;;;;;;40.28;24.50;;;;;;;14.46;41.69;101861.47;5074527;28;20505;-68
2022/03/28 07:48:06;;;;;;;47.63;25.35;;;;;;;14.19;41.85;101858.97;5074681;28;20525;-68
2022/03/28 07:50:34;;;;;;;40.95;23.58;;;;;;;14.19;42.06;101853.47;5074636;28;20522;-68
2022/03/28 07:53:03;;;;;;;44.58;23.85;;;;;;;14.26;42.35;101851.28;5072980;28;20041;-68
2022/03/28 07:55:31;;;;;;;43.33;24.75;;;;;;;14.10;41.39;101847.69;5074644;28;20048;-68
2022/03/28 07:58:02;;;;;;;39.47;23.17;;;;;;;14.34;41.33;101852.66;5074733;28;20036;-68
2022/03/28 08:00:30;;;;;;;37.88;22.20;;;;;;;14.55;40.04;101845.22;5074805;28;20056;-68
2022/03/28 08:02:59;;;;;;;39.35;24.33;;;;;;;14.77;40.34;101844.16;5074141;28;20045;-68
2022/03/28 08:05:28;;;;;;;44.25;23.65;;;;;;;14.83;40.02;101842.19;5073534;28;20045;-68
2022/03/28 08:08:15;;;;;;;36.47;21.92;;;;;;;15.00;40.46;101847.41;5088830;28;20041;-68
2022/03/28 08:10:59;;;;;;;47.00;23.45;;;;;;;15.11;39.62;101849.03;5074228;28;20052;-68
2022/03/28 08:13:27;;;;;;;44.22;24.50;;;;;;;15.31;38.35;101833.53;5074392;28;20052;-68
2022/03/28 08:15:55;;;;;;;43.63;25.05;;;;;;;15.40;38.63;101840.09;5074211;28;20053;-68
2022/03/28 08:18:24;;;;;;;44.20;24.63;;;;;;;15.52;38.23;101837.03;5073566;28;20041;-68
2022/03/28 08:20:53;;;;;;;43.30;25.60;;;;;;;15.36;38.81;101841.81;5074200;28;20052;-68
2022/03/28 08:23:21;;;;;;;40.85;23.17;;;;;;;15.26;38.90;101839.88;5071977;28;20487;-68
2022/03/28 08:25:50;;;;;;;42.08;24.08;;;;;;;15.72;37.13;101846.31;5074280;28;20063;-68
2022/03/28 08:28:18;;;;;;;45.20;24.98;;;;;;;15.65;37.57;101824.53;5074090;28;20048;-68
2022/03/28 08:30:47;;;;;;;42.35;23.50;;;;;;;15.69;37.95;101831.16;5073684;28;20047;-68
2022/03/28 08:33:15;;;;;;;40.70;23.15;;;;;;;16.15;36.74;101833.94;5073666;28;20056;-68
2022/03/28 08:35:43;;;;;;;38.65;22.95;;;;;;;16.34;36.60;101840.44;5073827;28;20056;-68
2022/03/28 08:38:11;;;;;;;42.38;24.38;;;;;;;16.44;36.57;101834.00;5073872;28;20044;-68
2022/03/28 08:40:42;;;;;;;42.05;23.38;;;;;;;16.68;35.96;101837.94;5073818;28;20418;-68
2022/03/28 08:43:10;;;;;;;37.92;22.98;;;;;;;16.92;35.70;101838.78;5073651;28;20059;-68
2022/03/28 08:45:57;;;;;;;38.60;22.48;;;;;;;17.14;34.44;101837.47;5073500;28;20051;-68
2022/03/28 08:48:27;;;;;;;38.10;22.35;;;;;;;17.42;34.81;101837.72;5073520;28;20048;-68
2022/03/28 08:50:56;;;;;;;41.65;22.58;;;;;;;17.35;34.75;101834.47;5073350;28;20049;-68
2022/03/28 08:53:24;;;;;;;36.20;21.70;;;;;;;17.86;33.69;101832.13;5072985;28;20052;-68
2022/03/28 08:55:52;;;;;;;38.85;22.08;;;;;;;17.81;33.71;101834.97;5073407;28;20052;-68
2022/03/28 08:58:41;;;;;;;36.97;21.77;;;;;;;17.86;34.21;101827.41;5072958;28;20056;-68
2022/03/28 09:01:11;;;;;;;40.50;22.40;;;;;;;17.57;32.77;101830.31;5073441;28;20068;-68
2022/03/28 09:03:47;;;;;;;36.53;23.55;;;;;;;17.18;32.51;101827.50;5073484;28;20407;-68
2022/03/28 09:06:38;;;;;;;35.83;21.48;;;;;;;17.66;32.61;101823.00;5072838;28;20065;-68
2022/03/28 09:09:21;;;;;;;40.28;22.45;;;;;;;17.84;32.20;101823.31;5073268;28;20048;-67
2022/03/28 09:11:53;;;;;;;40.45;23.23;;;;;;;18.46;30.74;101827.91;5073102;28;20048;-68
2022/03/28 09:14:29;;;;;;;34.65;19.48;;;;;;;18.83;28.33;101821.72;5073131;28;20495;-68
2022/03/28 09:17:02;;;;;;;34.45;19.88;;;;;;;18.84;27.80;101815.03;5072094;28;20043;-68
2022/03/28 09:19:49;;;;;;;35.83;20.50;;;;;;;18.49;28.70;101816.22;5072023;28;20048;-68
2022/03/28 09:22:25;;;;;;;33.53;19.88;;;;;;;18.56;29.68;101817.78;5072271;28;20052;-68
2022/03/28 09:25:05;;;;;;;37.30;18.38;;;;;;;18.81;29.41;101805.38;5072730;28;20044;-68
2022/03/28 09:27:37;;;;;;;27.90;18.02;;;;;;;19.45;27.83;101804.69;5072972;28;20060;-68
2022/03/28 09:30:14;;;;;;;31.60;19.23;;;;;;;19.74;27.23;101799.88;5072981;28;20060;-69
2022/03/28 09:32:47;;;;;;;33.00;18.98;;;;;;;19.25;27.21;101799.56;5072416;28;20056;-68
2022/03/28 09:35:22;;;;;;;33.10;17.48;;;;;;;19.71;27.23;101792.19;5072407;28;20061;-68
2022/03/28 09:37:52;;;;;;;30.27;18.65;;;;;;;20.35;26.83;101794.00;5073202;28;20049;-68
2022/03/28 09:40:24;;;;;;;36.47;18.58;;;;;;;20.40;27.33;101793.84;5072791;28;20075;-69
2022/03/28 09:42:52;;;;;;;31.20;19.10;;;;;;;20.68;26.85;101785.34;5072747;28;20053;-68
2022/03/28 09:45:29;;;;;;;33.80;19.92;;;;;;;20.56;25.88;101782.34;5072319;28;20376;-68
2022/03/28 09:48:03;;;;;;;31.70;19.55;;;;;;;20.03;27.65;101781.19;5072519;28;20074;-68
2022/03/28 09:51:09;;;;;;;33.15;19.10;;;;;;;19.64;27.63;101780.69;5072546;28;20043;-69
2022/03/28 09:53:39;;;;;;;32.13;20.75;;;;;;;19.22;29.10;101781.59;5070440;28;20475;-67
2022/03/28 09:56:09;;;;;;;30.65;19.73;;;;;;;19.43;28.54;101775.59;5071499;28;20408;-67
2022/03/28 09:59:01;;;;;;;39.35;21.33;;;;;;;19.60;28.38;101767.41;5072360;28;20059;-67
2022/03/28 10:01:38;;;;;;;36.97;19.95;;;;;;;20.57;27.82;101772.84;5070512;28;20039;-67
2022/03/28 10:04:09;;;;;;;41.15;20.83;;;;;;;20.04;27.83;101764.19;5076467;28;20044;-68
2022/03/28 10:06:39;;;;;;;34.88;20.60;;;;;;;20.67;27.06;101760.63;5070890;28;20048;-67
2022/03/28 10:09:08;;;;;;;34.78;20.00;;;;;;;20.59;27.17;101758.63;5071397;28;20511;-68
2022/03/28 10:11:37;;;;;;;32.42;18.98;;;;;;;20.62;26.12;101747.69;5071747;28;20052;-70
2022/03/28 10:14:05;;;;;;;34.25;19.55;;;;;;;20.67;27.56;101750.31;5070827;28;20522;-68
2022/03/28 10:16:34;;;;;;;33.40;19.20;;;;;;;20.89;27.00;101740.31;5070238;28;20061;-68
2022/03/28 10:19:03;;;;;;;31.75;17.55;;;;;;;21.39;25.46;101735.47;5072531;28;20395;-69
2022/03/28 10:21:36;;;;;;;28.67;17.27;;;;;;;22.20;23.99;101740.69;5070044;28;20380;-68
2022/03/28 10:24:20;;;;;;;27.77;17.98;;;;;;;22.57;23.74;101736.69;5096260;28;20059;-69
2022/03/28 10:26:53;;;;;;;29.80;18.90;;;;;;;21.99;24.86;101729.41;5080027;28;20056;-69
2022/03/28 10:29:23;;;;;;;35.72;18.83;;;;;;;21.88;25.58;101729.78;5085060;28;20165;-69
2022/03/28 10:32:00;;;;;;;30.85;18.48;;;;;;;21.50;25.79;101718.47;5084533;28;20033;-69
2022/03/28 10:34:56;;;;;;;25.80;16.98;;;;;;;21.83;23.93;101710.44;5081743;28;20041;-69
2022/03/28 10:37:40;;;;;;;32.90;17.73;;;;;;;21.99;24.25;101713.50;5084925;28;20067;-68
2022/03/28 10:40:21;;;;;;;33.20;18.33;;;;;;;22.06;24.06;101707.44;5086189;28;20138;-69
2022/03/28 10:43:09;;;;;;;28.60;18.90;;;;;;;22.20;24.57;101698.06;5086657;28;20422;-69
2022/03/28 10:45:53;;;;;;;29.50;17.85;;;;;;;22.40;23.96;101696.50;5087259;28;20067;-69
2022/03/28 10:48:48;;;;;;;29.02;17.95;;;;;;;22.88;22.53;101690.88;5086111;28;20070;-69
2022/03/28 10:51:24;;;;;;;28.17;17.15;;;;;;;22.99;22.23;101686.53;5085642;28;20052;-69
2022/03/28 10:53:56;;;;;;;29.77;17.02;;;;;;;23.05;22.87;101679.59;5083471;28;20052;-69
2022/03/28 10:56:34;;;;;;;27.05;16.73;;;;;;;23.14;21.25;101681.50;5084819;28;20040;-69
2022/03/28 10:59:11;;;;;;;27.25;16.88;;;;;;;23.26;22.79;101673.19;5084012;28;20043;-69
2022/03/28 11:01:49;;;;;;;27.92;17.05;;;;;;;23.06;23.34;101669.25;5082822;28;20044;-69
2022/03/28 11:04:21;;;;;;;24.52;15.73;;;;;;;22.92;22.95;101675.09;5089783;28;20040;-69
2022/03/28 11:07:07;;;;;;;27.17;15.18;;;;;;;23.47;21.89;101664.84;5086414;28;20094;-69
2022/03/28 11:09:41;;;;;;;22.30;14.65;;;;;;;23.05;21.46;101668.44;5086564;28;20032;-69
2022/03/28 11:12:21;;;;;;;23.58;15.43;;;;;;;23.21;21.86;101665.03;5085060;28;20051;-69
2022/03/28 11:14:51;;;;;;;22.98;14.32;;;;;;;23.22;21.52;101652.72;5084221;28;20495;-69
2022/03/28 11:17:20;;;;;;;23.52;15.43;;;;;;;22.81;21.69;101655.13;5084722;28;20430;-69
2022/03/28 11:19:57;;;;;;;22.50;14.27;;;;;;;23.53;20.50;101657.06;5084628;28;20051;-69
2022/03/28 11:22:51;;;;;;;22.20;13.95;;;;;;;23.14;21.51;101650.78;5084702;28;20695;-69
2022/03/28 11:25:31;;;;;;;20.35;13.68;;;;;;;23.94;20.35;101648.13;5082395;28;20040;-69
2022/03/28 11:28:13;;;;;;;22.25;14.18;;;;;;;23.25;21.38;101637.25;5082772;28;20063;-70
2022/03/28 11:31:12;;;;;;;16.83;11.88;;;;;;;23.94;18.09;101634.13;5084619;28;20048;-69